• Join FlightAware (Why Join?)
  • Login
  • US Flag 
05:36AM EDT


 

Airport Tracker/Info


-or-


 

Live Flight TrackerFlight Track Log ✈ DAL3860 ✈ 29-Apr-2013 ✈ KCLE - KMSP

Flight Track Log - Related Links

Times and Time Zones

All times are in EDT time to prevent confusion due to time zone crossing. See the DAL3860 flight status page for this flight to view local times or setup timezone preferences in your user account.

Time Position Orientation Groundspeed Altitude Reporting Facility
EDT Latitude Longitude Course Direction KTS MPH feet Rate Location/Type
09:11AM 41.3939 -81.8814 252° West 165 190 1,700  Level Cleveland Center
09:11AM 41.3917 -81.9033 262° West 156 180 2,400 1,620 Climbing Cleveland Center
09:12AM 41.3892 -81.9419 265° West 184 212 3,300 1,740 Climbing Cleveland Center
09:13AM 41.3797 -82.0194 261° West 202 232 5,200 2,220 Climbing Cleveland Center
09:14AM 41.3338 -82.3634 260° West  Level FlightAware Approximate
09:14AM 41.3661 -82.1103 259° West 238 274 7,800  Level Cleveland Center
09:15AM 41.3029 -82.4886 252° West  Level FlightAware Approximate
09:15AM 41.3522 -82.2125 260° West 267 307 10,300  Level Cleveland Center
09:16AM 41.2914 -82.6179 252° West  Level FlightAware Approximate
09:16AM 41.3358 -82.3253 259° West 294 338 11,400  Level Cleveland Center
09:17AM 41.3172 -82.4464 258° West 328 377 13,300 1,560 Climbing Cleveland Center
09:18AM 41.3006 -82.5731 260° West 343 395 14,600 1,200 Climbing Cleveland Center
09:19AM 41.2836 -82.7053 260° West 356 410 15,700 1,200 Climbing Cleveland Center
09:20AM 41.2642 -82.8428 259° West 376 433 17,000 1,200 Climbing Cleveland Center
09:21AM 41.2489 -82.9803 262° West 376 433 18,200 1,140 Climbing Cleveland Center
09:22AM 41.2778 -83.1003 288° West 368 423 19,300 1,200 Climbing Cleveland Center
09:23AM 41.3206 -83.2347 293° West 368 423 20,600 960 Climbing Cleveland Center
09:24AM 41.3633 -83.3664 293° West 374 430 21,300 840 Climbing Cleveland Center
09:25AM 41.4036 -83.4983 292° West 379 436 22,300 900 Climbing Cleveland Center
09:26AM 41.4461 -83.6333 293° West 379 436 23,100 840 Climbing Cleveland Center
09:27AM 41.4547 -83.7778 275° West 379 436 24,000 660 Climbing Cleveland Center
09:28AM 41.4589 -83.9247 272° West 392 451 24,500 480 Climbing Cleveland Center
09:29AM 41.4647 -84.0775 273° West 409 471 25,000 480 Climbing Cleveland Center
09:30AM 41.4725 -84.2278 274° West 409 471 25,500 480 Climbing Cleveland Center
09:32AM 41.4869 -84.5847 273° West 415 478 26,700 480 Climbing Chicago Center
09:33AM 41.4919 -84.7403 273° West 420 483 27,200 480 Climbing Chicago Center
09:34AM 41.4967 -84.8953 272° West 419 482 27,700 480 Climbing Chicago Center
09:35AM 41.5011 -85.0500 272° West 418 481 28,200 480 Climbing Chicago Center
09:36AM 41.5047 -85.2042 272° West 416 479 28,700 480 Climbing Chicago Center
09:37AM 41.5272 -85.3533 281° West 416 479 29,200 480 Climbing Chicago Center
09:38AM 41.5983 -85.4728 309° West 416 479 29,700 360 Climbing Chicago Center
09:39AM 41.6703 -85.6039 306° West 409 471 30,000 120 Climbing Chicago Center
09:40AM 41.7397 -85.7272 307° West 411 473 30,000  Level Chicago Center
09:41AM 41.8225 -85.8747 307° West 413 475 30,000  Level Chicago Center
09:42AM 41.8900 -85.9972 307° West 410 472 30,000  Level Chicago Center
09:43AM 41.9583 -86.1197 307° West 410 472 30,000  Level Chicago Center
09:44AM 42.0283 -86.2439 307° West 416 479 30,000  Level Chicago Center
09:45AM 42.0950 -86.3656 306° West 408 470 30,000  Level Chicago Center
09:46AM 42.1628 -86.4914 306° West 413 475 30,000  Level Chicago Center
09:48AM 42.2458 -86.6422 307° West 418 481 30,000  Level Chicago Center
09:49AM 42.3072 -86.7531 307° West 421 484 30,000  Level Chicago Center
09:50AM 42.3875 -86.9033 306° West 415 478 30,000  Level Chicago Center
09:51AM 42.4544 -87.0278 306° West 414 476 30,000  Level Chicago Center
09:52AM 42.5208 -87.1497 306° West 410 472 30,000  Level Chicago Center
09:53AM 42.5956 -87.2919 306° West 417 480 30,000  Level Chicago Center
09:54AM 42.6631 -87.4178 306° West 411 473 30,000  Level Chicago Center
09:55AM 42.7311 -87.5467 306° West 416 479 30,000  Level Chicago Center
09:56AM 42.7983 -87.6736 306° West 414 476 30,000  Level Chicago Center
09:57AM 42.8647 -87.8022 305° West 414 476 30,000  Level Chicago Center
09:58AM 42.9328 -87.9311 306° West 417 480 30,000  Level Chicago Center
09:59AM 43.0114 -88.0819 306° West 416 479 30,000  Level Chicago Center
10:00AM 43.0792 -88.2114 306° West 416 479 30,000  Level Chicago Center
10:01AM 43.1489 -88.3394 307° West 419 482 30,000  Level Chicago Center
10:02AM 43.2211 -88.4628 309° West 414 476 30,000  Level Chicago Center
10:03AM 43.2936 -88.5867 309° West 411 473 30,000  Level Chicago Center
10:04AM 43.3661 -88.7111 309° West 410 472 30,000  Level Chicago Center
10:05AM 43.4383 -88.8358 309° West 413 475 30,000  Level Chicago Center
10:06AM 43.5092 -88.9581 309° West 408 470 30,000  Level Chicago Center
10:07AM 43.5900 -89.0992 308° West 401 461 30,000  Level Chicago Center
10:08AM 43.6589 -89.2183 309° West 396 456 30,000  Level Chicago Center
10:09AM 43.7261 -89.3389 308° West 395 455 30,000  Level Chicago Center
10:10AM 43.7944 -89.4578 309° West 395 455 30,000  Level Chicago Center
10:11AM 43.8633 -89.5783 308° West 397 457 30,000  Level Chicago Center
10:12AM 43.9319 -89.6994 308° West 397 457 30,000  Level Chicago Center
10:13AM 44.0097 -89.8419 307° West 397 457 30,000  Level Chicago Center
10:14AM 44.0783 -89.9622 308° West 397 457 30,000  Level Chicago Center
10:15AM 44.1453 -90.0844 307° West 396 456 30,000  Level Chicago Center
10:17AM 44.2239 -90.2261 308° West 398 458 30,000  Level Minneapolis Center
10:18AM 44.2903 -90.3483 307° West 395 455 30,000  Level Minneapolis Center
10:19AM 44.3575 -90.4708 308° West 396 456 30,000 -540 Level Minneapolis Center
10:20AM 44.4167 -90.5978 303° West 390 449 28,900 -1,320 Descending Minneapolis Center
10:21AM 44.4653 -90.7306 297° West 385 443 27,400 -1,620 Descending Minneapolis Center
10:22AM 44.5219 -90.8786 298° West 373 429 25,700 -1,500 Descending Minneapolis Center
10:23AM 44.5647 -90.9961 297° West 367 422 24,300 -840 Descending Minneapolis Center
10:24AM 44.6136 -91.1253 298° West 370 426 24,000 -180 Descending Minneapolis Center
10:25AM 44.6667 -91.2597 299° West 385 443 24,000 -240 Level Minneapolis Center
10:26AM 44.7286 -91.4200 299° West 391 450 23,500 -1,380 Descending Minneapolis Center
10:27AM 44.7875 -91.5769 298° West 383 441 21,000 -2,220 Descending Minneapolis Center
10:28AM 44.8344 -91.7019 298° West 370 426 19,000 -1,800 Descending Minneapolis Center
10:29AM 44.8703 -91.8000 297° West 361 415 17,400 -1,860 Descending Minneapolis Center
10:30AM 44.9214 -91.9381 298° West 332 382 15,200 -1,800 Descending Minneapolis Center
10:31AM 44.9614 -92.0497 297° West 322 371 13,700 -1,620 Descending Minneapolis Center
10:32AM 45.0103 -92.1808 298° West 315 362 11,900 -1,200 Descending Minneapolis Center
10:33AM 45.0469 -92.2925 295° West 317 365 11,000 -540 Descending Minneapolis Center
10:34AM 45.0258 -92.4139 256° West 312 359 10,800 -1,080 Descending Minneapolis Center
10:35AM 44.9753 -92.5208 236° Southwest 275 316 8,800 -1,800 Descending Minneapolis Center
10:36AM 44.9319 -92.6122 236° Southwest 280 322 7,200 -900 Descending Minneapolis Center
10:38AM 44.8906 -92.6986 236° Southwest 269 310 7,000 -360 Descending Minneapolis Center
10:39AM 44.8475 -92.7897 236° Southwest 278 320 6,500 -1,140 Descending Minneapolis Center
10:40AM 44.7964 -92.8961 236° Southwest 274 315 4,700 -1,380 Descending Minneapolis Center
10:41AM 44.7947 -92.9897 269° West 243 280 3,700 -840 Descending Minneapolis Center
10:42AM 44.8214 -93.0561 300° West 199 229 3,100 -600 Descending Minneapolis Center